sensor_id;sensor_type;location;lat;lon;timestamp;P1;durP1;ratioP1;P2;durP2;ratioP2
21681;SDS011;11002;48.256;10.084;2022-12-13T00:01:44;5.70;;;5.07;;
21681;SDS011;11002;48.256;10.084;2022-12-13T00:04:11;6.43;;;4.97;;
21681;SDS011;11002;48.256;10.084;2022-12-13T00:06:40;5.78;;;5.13;;
21681;SDS011;11002;48.256;10.084;2022-12-13T00:09:08;6.03;;;5.03;;
21681;SDS011;11002;48.256;10.084;2022-12-13T00:11:38;6.00;;;5.00;;
21681;SDS011;11002;48.256;10.084;2022-12-13T00:14:05;6.68;;;5.20;;
21681;SDS011;11002;48.256;10.084;2022-12-13T00:16:32;5.80;;;4.93;;
21681;SDS011;11002;48.256;10.084;2022-12-13T00:19:00;6.28;;;5.07;;
21681;SDS011;11002;48.256;10.084;2022-12-13T00:21:28;6.90;;;5.30;;
21681;SDS011;11002;48.256;10.084;2022-12-13T00:23:58;6.18;;;5.45;;
21681;SDS011;11002;48.256;10.084;2022-12-13T00:26:27;6.05;;;4.82;;
21681;SDS011;11002;48.256;10.084;2022-12-13T00:28:57;6.22;;;5.53;;
21681;SDS011;11002;48.256;10.084;2022-12-13T00:31:25;6.00;;;4.88;;
21681;SDS011;11002;48.256;10.084;2022-12-13T00:33:55;6.30;;;4.70;;
21681;SDS011;11002;48.256;10.084;2022-12-13T00:36:22;5.93;;;5.28;;
21681;SDS011;11002;48.256;10.084;2022-12-13T00:38:50;6.18;;;5.00;;
21681;SDS011;11002;48.256;10.084;2022-12-13T00:41:28;6.05;;;4.90;;
21681;SDS011;11002;48.256;10.084;2022-12-13T00:43:56;6.20;;;5.13;;
21681;SDS011;11002;48.256;10.084;2022-12-13T00:46:25;6.30;;;5.15;;
21681;SDS011;11002;48.256;10.084;2022-12-13T00:48:53;6.15;;;4.97;;
21681;SDS011;11002;48.256;10.084;2022-12-13T00:51:24;5.45;;;4.85;;
21681;SDS011;11002;48.256;10.084;2022-12-13T00:53:53;6.78;;;5.38;;
21681;SDS011;11002;48.256;10.084;2022-12-13T00:56:22;6.15;;;5.18;;
21681;SDS011;11002;48.256;10.084;2022-12-13T00:58:53;6.10;;;4.60;;
21681;SDS011;11002;48.256;10.084;2022-12-13T01:01:21;6.45;;;4.72;;
21681;SDS011;11002;48.256;10.084;2022-12-13T01:03:50;5.68;;;4.95;;
21681;SDS011;11002;48.256;10.084;2022-12-13T01:06:20;6.25;;;5.18;;
21681;SDS011;11002;48.256;10.084;2022-12-13T01:08:51;6.90;;;5.03;;
21681;SDS011;11002;48.256;10.084;2022-12-13T01:11:18;6.40;;;5.30;;
21681;SDS011;11002;48.256;10.084;2022-12-13T01:13:46;6.63;;;5.70;;
21681;SDS011;11002;48.256;10.084;2022-12-13T01:16:15;5.75;;;4.70;;
21681;SDS011;11002;48.256;10.084;2022-12-13T01:18:43;5.78;;;5.18;;
21681;SDS011;11002;48.256;10.084;2022-12-13T01:21:11;5.80;;;5.20;;
21681;SDS011;11002;48.256;10.084;2022-12-13T01:23:40;7.82;;;5.45;;
21681;SDS011;11002;48.256;10.084;2022-12-13T01:26:08;5.75;;;4.97;;
21681;SDS011;11002;48.256;10.084;2022-12-13T01:28:37;5.78;;;5.18;;
21681;SDS011;11002;48.256;10.084;2022-12-13T01:31:05;5.75;;;5.03;;
21681;SDS011;11002;48.256;10.084;2022-12-13T01:33:36;6.45;;;5.20;;
21681;SDS011;11002;48.256;10.084;2022-12-13T01:36:05;5.93;;;5.10;;
21681;SDS011;11002;48.256;10.084;2022-12-13T01:38:34;6.43;;;5.28;;
21681;SDS011;11002;48.256;10.084;2022-12-13T01:41:02;5.68;;;4.93;;
21681;SDS011;11002;48.256;10.084;2022-12-13T01:43:48;7.40;;;5.45;;
21681;SDS011;11002;48.256;10.084;2022-12-13T01:46:21;6.85;;;5.57;;
21681;SDS011;11002;48.256;10.084;2022-12-13T01:48:51;5.97;;;5.20;;
21681;SDS011;11002;48.256;10.084;2022-12-13T01:51:23;6.20;;;5.30;;
21681;SDS011;11002;48.256;10.084;2022-12-13T01:53:54;5.82;;;4.72;;
21681;SDS011;11002;48.256;10.084;2022-12-13T01:56:25;7.10;;;5.78;;
21681;SDS011;11002;48.256;10.084;2022-12-13T01:58:57;5.90;;;4.88;;
21681;SDS011;11002;48.256;10.084;2022-12-13T02:01:25;6.60;;;5.25;;
21681;SDS011;11002;48.256;10.084;2022-12-13T02:03:55;6.68;;;5.80;;
21681;SDS011;11002;48.256;10.084;2022-12-13T02:06:25;6.13;;;5.15;;
21681;SDS011;11002;48.256;10.084;2022-12-13T02:08:56;5.80;;;4.88;;
21681;SDS011;11002;48.256;10.084;2022-12-13T02:11:23;6.03;;;5.13;;
21681;SDS011;11002;48.256;10.084;2022-12-13T02:13:52;7.05;;;5.22;;
21681;SDS011;11002;48.256;10.084;2022-12-13T02:16:22;6.13;;;5.45;;
21681;SDS011;11002;48.256;10.084;2022-12-13T02:19:08;6.18;;;5.45;;
21681;SDS011;11002;48.256;10.084;2022-12-13T02:21:57;6.65;;;5.65;;
21681;SDS011;11002;48.256;10.084;2022-12-13T02:24:40;6.38;;;5.55;;
21681;SDS011;11002;48.256;10.084;2022-12-13T02:30:16;6.80;;;5.18;;
21681;SDS011;11002;48.256;10.084;2022-12-13T02:35:40;7.22;;;5.63;;
21681;SDS011;11002;48.256;10.084;2022-12-13T02:38:10;6.68;;;5.85;;
21681;SDS011;11002;48.256;10.084;2022-12-13T02:40:44;6.22;;;5.10;;
21681;SDS011;11002;48.256;10.084;2022-12-13T02:43:17;6.80;;;5.70;;
21681;SDS011;11002;48.256;10.084;2022-12-13T02:45:51;7.13;;;5.45;;
21681;SDS011;11002;48.256;10.084;2022-12-13T02:48:24;6.40;;;5.20;;
21681;SDS011;11002;48.256;10.084;2022-12-13T02:50:54;6.43;;;4.97;;
21681;SDS011;11002;48.256;10.084;2022-12-13T02:53:23;6.57;;;5.55;;
21681;SDS011;11002;48.256;10.084;2022-12-13T02:55:52;8.02;;;5.25;;
21681;SDS011;11002;48.256;10.084;2022-12-13T02:58:20;5.93;;;5.32;;
21681;SDS011;11002;48.256;10.084;2022-12-13T03:00:54;6.10;;;5.40;;
21681;SDS011;11002;48.256;10.084;2022-12-13T03:03:32;5.75;;;4.97;;
21681;SDS011;11002;48.256;10.084;2022-12-13T03:06:12;5.85;;;5.00;;
21681;SDS011;11002;48.256;10.084;2022-12-13T03:08:57;6.78;;;5.05;;
21681;SDS011;11002;48.256;10.084;2022-12-13T03:11:36;6.18;;;5.18;;
21681;SDS011;11002;48.256;10.084;2022-12-13T03:14:39;6.03;;;4.90;;
21681;SDS011;11002;48.256;10.084;2022-12-13T03:17:23;6.63;;;5.32;;
21681;SDS011;11002;48.256;10.084;2022-12-13T03:19:52;6.50;;;5.20;;
21681;SDS011;11002;48.256;10.084;2022-12-13T03:22:21;7.38;;;5.40;;
21681;SDS011;11002;48.256;10.084;2022-12-13T03:24:50;6.25;;;4.78;;
21681;SDS011;11002;48.256;10.084;2022-12-13T03:27:17;5.75;;;4.72;;
21681;SDS011;11002;48.256;10.084;2022-12-13T03:29:45;5.07;;;4.57;;
21681;SDS011;11002;48.256;10.084;2022-12-13T03:32:12;6.15;;;5.10;;
21681;SDS011;11002;48.256;10.084;2022-12-13T03:34:41;5.85;;;5.03;;
21681;SDS011;11002;48.256;10.084;2022-12-13T03:37:08;6.30;;;5.28;;
21681;SDS011;11002;48.256;10.084;2022-12-13T03:39:35;6.10;;;5.15;;
21681;SDS011;11002;48.256;10.084;2022-12-13T03:42:03;5.50;;;4.88;;
21681;SDS011;11002;48.256;10.084;2022-12-13T03:44:30;6.32;;;5.22;;
21681;SDS011;11002;48.256;10.084;2022-12-13T03:46:57;5.88;;;4.60;;
21681;SDS011;11002;48.256;10.084;2022-12-13T03:49:25;5.63;;;4.88;;
21681;SDS011;11002;48.256;10.084;2022-12-13T03:51:53;5.80;;;5.05;;
21681;SDS011;11002;48.256;10.084;2022-12-13T03:54:21;5.75;;;4.28;;
21681;SDS011;11002;48.256;10.084;2022-12-13T03:56:48;6.43;;;5.28;;
21681;SDS011;11002;48.256;10.084;2022-12-13T03:59:16;5.18;;;4.32;;
21681;SDS011;11002;48.256;10.084;2022-12-13T04:01:43;6.88;;;5.10;;
21681;SDS011;11002;48.256;10.084;2022-12-13T04:04:11;4.68;;;4.25;;
21681;SDS011;11002;48.256;10.084;2022-12-13T04:06:38;6.95;;;4.80;;
21681;SDS011;11002;48.256;10.084;2022-12-13T04:09:07;6.45;;;4.85;;
21681;SDS011;11002;48.256;10.084;2022-12-13T04:11:34;6.63;;;5.32;;
21681;SDS011;11002;48.256;10.084;2022-12-13T04:14:18;5.55;;;4.53;;
21681;SDS011;11002;48.256;10.084;2022-12-13T04:16:46;5.53;;;4.60;;
21681;SDS011;11002;48.256;10.084;2022-12-13T04:19:13;4.90;;;4.35;;
21681;SDS011;11002;48.256;10.084;2022-12-13T04:21:40;5.97;;;5.05;;
21681;SDS011;11002;48.256;10.084;2022-12-13T04:24:09;5.47;;;4.65;;
21681;SDS011;11002;48.256;10.084;2022-12-13T04:26:36;5.43;;;4.63;;
21681;SDS011;11002;48.256;10.084;2022-12-13T04:29:04;5.65;;;4.53;;
21681;SDS011;11002;48.256;10.084;2022-12-13T04:31:31;5.93;;;4.63;;
21681;SDS011;11002;48.256;10.084;2022-12-13T04:33:58;4.80;;;4.30;;
21681;SDS011;11002;48.256;10.084;2022-12-13T04:36:26;4.97;;;4.45;;
21681;SDS011;11002;48.256;10.084;2022-12-13T04:38:53;6.07;;;4.50;;
21681;SDS011;11002;48.256;10.084;2022-12-13T04:41:22;5.20;;;4.68;;
21681;SDS011;11002;48.256;10.084;2022-12-13T04:43:49;6.75;;;4.55;;
21681;SDS011;11002;48.256;10.084;2022-12-13T04:46:17;5.53;;;4.30;;
21681;SDS011;11002;48.256;10.084;2022-12-13T04:48:44;5.35;;;4.30;;
21681;SDS011;11002;48.256;10.084;2022-12-13T04:51:12;4.75;;;4.20;;
21681;SDS011;11002;48.256;10.084;2022-12-13T04:53:40;4.70;;;4.22;;
21681;SDS011;11002;48.256;10.084;2022-12-13T04:56:07;4.70;;;4.20;;
21681;SDS011;11002;48.256;10.084;2022-12-13T04:58:36;5.35;;;4.43;;
21681;SDS011;11002;48.256;10.084;2022-12-13T05:01:05;4.80;;;4.30;;
21681;SDS011;11002;48.256;10.084;2022-12-13T05:03:32;4.90;;;4.28;;
21681;SDS011;11002;48.256;10.084;2022-12-13T05:06:03;4.80;;;4.28;;
21681;SDS011;11002;48.256;10.084;2022-12-13T05:08:30;4.25;;;3.75;;
21681;SDS011;11002;48.256;10.084;2022-12-13T05:10:58;4.63;;;4.22;;
21681;SDS011;11002;48.256;10.084;2022-12-13T05:13:26;5.25;;;4.40;;
21681;SDS011;11002;48.256;10.084;2022-12-13T05:15:55;5.03;;;4.28;;
21681;SDS011;11002;48.256;10.084;2022-12-13T05:18:23;5.38;;;4.40;;
21681;SDS011;11002;48.256;10.084;2022-12-13T05:20:50;4.50;;;3.95;;
21681;SDS011;11002;48.256;10.084;2022-12-13T05:23:18;4.70;;;3.90;;
21681;SDS011;11002;48.256;10.084;2022-12-13T05:25:46;4.72;;;4.15;;
21681;SDS011;11002;48.256;10.084;2022-12-13T05:28:14;4.13;;;3.72;;
21681;SDS011;11002;48.256;10.084;2022-12-13T05:30:41;5.13;;;4.18;;
21681;SDS011;11002;48.256;10.084;2022-12-13T05:33:10;4.28;;;3.70;;
21681;SDS011;11002;48.256;10.084;2022-12-13T05:35:38;4.25;;;3.70;;
21681;SDS011;11002;48.256;10.084;2022-12-13T05:38:05;5.00;;;4.50;;
21681;SDS011;11002;48.256;10.084;2022-12-13T05:40:33;4.88;;;4.15;;
21681;SDS011;11002;48.256;10.084;2022-12-13T05:43:00;4.10;;;3.70;;
21681;SDS011;11002;48.256;10.084;2022-12-13T05:45:28;4.18;;;3.72;;
21681;SDS011;11002;48.256;10.084;2022-12-13T05:47:55;4.38;;;3.97;;
21681;SDS011;11002;48.256;10.084;2022-12-13T05:50:24;4.57;;;4.03;;
21681;SDS011;11002;48.256;10.084;2022-12-13T05:52:51;5.13;;;4.15;;
21681;SDS011;11002;48.256;10.084;2022-12-13T05:55:18;4.90;;;3.97;;
21681;SDS011;11002;48.256;10.084;2022-12-13T05:57:46;4.78;;;3.80;;
21681;SDS011;11002;48.256;10.084;2022-12-13T06:00:14;3.70;;;3.40;;
21681;SDS011;11002;48.256;10.084;2022-12-13T06:02:42;5.25;;;4.40;;
21681;SDS011;11002;48.256;10.084;2022-12-13T06:05:10;5.25;;;4.07;;
21681;SDS011;11002;48.256;10.084;2022-12-13T06:07:39;5.18;;;4.18;;
21681;SDS011;11002;48.256;10.084;2022-12-13T06:10:06;5.15;;;4.03;;
21681;SDS011;11002;48.256;10.084;2022-12-13T06:12:34;4.82;;;3.97;;
21681;SDS011;11002;48.256;10.084;2022-12-13T06:15:03;5.18;;;4.22;;
21681;SDS011;11002;48.256;10.084;2022-12-13T06:17:32;4.00;;;3.60;;
21681;SDS011;11002;48.256;10.084;2022-12-13T06:19:59;4.38;;;3.97;;
21681;SDS011;11002;48.256;10.084;2022-12-13T06:22:27;3.97;;;3.58;;
21681;SDS011;11002;48.256;10.084;2022-12-13T06:24:56;4.45;;;3.58;;
21681;SDS011;11002;48.256;10.084;2022-12-13T06:27:23;4.65;;;3.67;;
21681;SDS011;11002;48.256;10.084;2022-12-13T06:29:50;4.40;;;4.00;;
21681;SDS011;11002;48.256;10.084;2022-12-13T06:32:18;4.35;;;3.95;;
21681;SDS011;11002;48.256;10.084;2022-12-13T06:34:45;4.55;;;3.97;;
21681;SDS011;11002;48.256;10.084;2022-12-13T06:37:12;4.20;;;3.70;;
21681;SDS011;11002;48.256;10.084;2022-12-13T06:39:40;4.30;;;3.85;;
21681;SDS011;11002;48.256;10.084;2022-12-13T06:42:14;4.65;;;3.95;;
21681;SDS011;11002;48.256;10.084;2022-12-13T06:44:43;3.80;;;3.47;;
21681;SDS011;11002;48.256;10.084;2022-12-13T06:47:10;4.05;;;3.65;;
21681;SDS011;11002;48.256;10.084;2022-12-13T06:49:38;4.20;;;3.80;;
21681;SDS011;11002;48.256;10.084;2022-12-13T06:52:07;4.55;;;3.60;;
21681;SDS011;11002;48.256;10.084;2022-12-13T06:54:36;4.45;;;3.95;;
21681;SDS011;11002;48.256;10.084;2022-12-13T06:57:03;4.07;;;3.67;;
21681;SDS011;11002;48.256;10.084;2022-12-13T06:59:32;3.83;;;3.47;;
21681;SDS011;11002;48.256;10.084;2022-12-13T07:01:59;5.43;;;4.00;;
21681;SDS011;11002;48.256;10.084;2022-12-13T07:04:26;5.15;;;3.95;;
21681;SDS011;11002;48.256;10.084;2022-12-13T07:06:54;4.85;;;3.80;;
21681;SDS011;11002;48.256;10.084;2022-12-13T07:09:22;4.10;;;3.67;;
21681;SDS011;11002;48.256;10.084;2022-12-13T07:11:49;4.07;;;3.60;;
21681;SDS011;11002;48.256;10.084;2022-12-13T07:14:16;4.10;;;3.67;;
21681;SDS011;11002;48.256;10.084;2022-12-13T07:16:45;3.85;;;3.42;;
21681;SDS011;11002;48.256;10.084;2022-12-13T07:19:12;4.10;;;3.38;;
21681;SDS011;11002;48.256;10.084;2022-12-13T07:21:40;4.38;;;3.78;;
21681;SDS011;11002;48.256;10.084;2022-12-13T07:24:07;4.97;;;3.35;;
21681;SDS011;11002;48.256;10.084;2022-12-13T07:26:34;4.40;;;3.60;;
21681;SDS011;11002;48.256;10.084;2022-12-13T07:29:02;3.70;;;3.38;;
21681;SDS011;11002;48.256;10.084;2022-12-13T07:31:30;4.30;;;3.88;;
21681;SDS011;11002;48.256;10.084;2022-12-13T07:34:01;4.80;;;3.70;;
21681;SDS011;11002;48.256;10.084;2022-12-13T07:36:28;3.97;;;3.47;;
21681;SDS011;11002;48.256;10.084;2022-12-13T07:38:56;4.47;;;3.88;;
21681;SDS011;11002;48.256;10.084;2022-12-13T07:41:24;6.20;;;5.40;;
21681;SDS011;11002;48.256;10.084;2022-12-13T07:43:53;10.00;;;8.95;;
21681;SDS011;11002;48.256;10.084;2022-12-13T07:46:21;8.65;;;7.50;;
21681;SDS011;11002;48.256;10.084;2022-12-13T07:48:48;10.57;;;8.02;;
21681;SDS011;11002;48.256;10.084;2022-12-13T07:51:17;8.05;;;6.90;;
21681;SDS011;11002;48.256;10.084;2022-12-13T07:53:44;7.65;;;6.45;;
21681;SDS011;11002;48.256;10.084;2022-12-13T07:56:12;7.78;;;6.40;;
21681;SDS011;11002;48.256;10.084;2022-12-13T07:58:59;8.55;;;5.80;;
21681;SDS011;11002;48.256;10.084;2022-12-13T08:01:26;8.25;;;5.97;;
21681;SDS011;11002;48.256;10.084;2022-12-13T08:03:53;8.13;;;6.10;;
21681;SDS011;11002;48.256;10.084;2022-12-13T08:06:23;9.85;;;5.70;;
21681;SDS011;11002;48.256;10.084;2022-12-13T08:08:53;6.80;;;5.57;;
21681;SDS011;11002;48.256;10.084;2022-12-13T08:11:21;8.77;;;5.25;;
21681;SDS011;11002;48.256;10.084;2022-12-13T08:13:48;8.00;;;5.50;;
21681;SDS011;11002;48.256;10.084;2022-12-13T08:16:15;7.55;;;5.10;;
21681;SDS011;11002;48.256;10.084;2022-12-13T08:18:43;5.63;;;4.65;;
21681;SDS011;11002;48.256;10.084;2022-12-13T08:21:12;6.70;;;4.60;;
21681;SDS011;11002;48.256;10.084;2022-12-13T08:23:41;6.53;;;4.80;;
21681;SDS011;11002;48.256;10.084;2022-12-13T08:26:08;5.47;;;4.30;;
21681;SDS011;11002;48.256;10.084;2022-12-13T08:28:35;5.88;;;4.97;;
21681;SDS011;11002;48.256;10.084;2022-12-13T08:31:03;6.05;;;4.80;;
21681;SDS011;11002;48.256;10.084;2022-12-13T08:33:32;7.35;;;4.45;;
21681;SDS011;11002;48.256;10.084;2022-12-13T08:36:07;5.00;;;4.38;;
21681;SDS011;11002;48.256;10.084;2022-12-13T08:38:35;5.50;;;4.65;;
21681;SDS011;11002;48.256;10.084;2022-12-13T08:41:04;6.63;;;4.45;;
21681;SDS011;11002;48.256;10.084;2022-12-13T08:43:33;5.50;;;4.05;;
21681;SDS011;11002;48.256;10.084;2022-12-13T08:46:01;4.53;;;4.03;;
21681;SDS011;11002;48.256;10.084;2022-12-13T08:48:28;4.80;;;3.92;;
21681;SDS011;11002;48.256;10.084;2022-12-13T08:50:58;5.53;;;4.38;;
21681;SDS011;11002;48.256;10.084;2022-12-13T08:53:26;5.07;;;4.03;;
21681;SDS011;11002;48.256;10.084;2022-12-13T08:55:53;4.75;;;3.97;;
21681;SDS011;11002;48.256;10.084;2022-12-13T08:58:27;6.47;;;4.70;;
21681;SDS011;11002;48.256;10.084;2022-12-13T09:00:55;4.72;;;3.95;;
21681;SDS011;11002;48.256;10.084;2022-12-13T09:03:23;5.55;;;3.70;;
21681;SDS011;11002;48.256;10.084;2022-12-13T09:05:50;6.00;;;4.30;;
21681;SDS011;11002;48.256;10.084;2022-12-13T09:08:18;4.20;;;3.67;;
21681;SDS011;11002;48.256;10.084;2022-12-13T09:10:45;5.13;;;4.45;;
21681;SDS011;11002;48.256;10.084;2022-12-13T09:13:21;5.90;;;3.90;;
21681;SDS011;11002;48.256;10.084;2022-12-13T09:15:50;4.15;;;3.75;;
21681;SDS011;11002;48.256;10.084;2022-12-13T09:18:17;5.70;;;3.78;;
21681;SDS011;11002;48.256;10.084;2022-12-13T09:20:45;4.22;;;3.83;;
21681;SDS011;11002;48.256;10.084;2022-12-13T09:23:12;4.10;;;3.65;;
21681;SDS011;11002;48.256;10.084;2022-12-13T09:25:41;15.15;;;5.13;;
21681;SDS011;11002;48.256;10.084;2022-12-13T09:28:08;4.38;;;3.63;;
21681;SDS011;11002;48.256;10.084;2022-12-13T09:30:36;4.80;;;3.70;;
21681;SDS011;11002;48.256;10.084;2022-12-13T09:33:05;4.40;;;3.42;;
21681;SDS011;11002;48.256;10.084;2022-12-13T09:35:33;4.13;;;3.58;;
21681;SDS011;11002;48.256;10.084;2022-12-13T09:38:03;4.32;;;3.53;;
21681;SDS011;11002;48.256;10.084;2022-12-13T09:40:30;4.70;;;3.80;;
21681;SDS011;11002;48.256;10.084;2022-12-13T09:42:59;4.30;;;3.90;;
21681;SDS011;11002;48.256;10.084;2022-12-13T09:45:28;4.72;;;3.47;;
21681;SDS011;11002;48.256;10.084;2022-12-13T09:47:55;4.03;;;3.30;;
21681;SDS011;11002;48.256;10.084;2022-12-13T09:50:27;4.25;;;3.53;;
21681;SDS011;11002;48.256;10.084;2022-12-13T09:52:57;3.90;;;3.47;;
21681;SDS011;11002;48.256;10.084;2022-12-13T09:55:27;3.72;;;3.30;;
21681;SDS011;11002;48.256;10.084;2022-12-13T09:57:58;4.18;;;3.30;;
21681;SDS011;11002;48.256;10.084;2022-12-13T10:00:32;4.22;;;3.20;;
21681;SDS011;11002;48.256;10.084;2022-12-13T10:03:01;4.53;;;3.47;;
21681;SDS011;11002;48.256;10.084;2022-12-13T10:05:31;5.10;;;3.22;;
21681;SDS011;11002;48.256;10.084;2022-12-13T10:08:04;8.05;;;3.33;;
21681;SDS011;11002;48.256;10.084;2022-12-13T10:10:33;3.55;;;2.90;;
21681;SDS011;11002;48.256;10.084;2022-12-13T10:13:02;3.10;;;2.80;;
21681;SDS011;11002;48.256;10.084;2022-12-13T10:15:39;3.88;;;3.20;;
21681;SDS011;11002;48.256;10.084;2022-12-13T10:18:08;3.38;;;3.00;;
21681;SDS011;11002;48.256;10.084;2022-12-13T10:20:41;3.13;;;2.80;;
21681;SDS011;11002;48.256;10.084;2022-12-13T10:23:09;3.85;;;3.45;;
21681;SDS011;11002;48.256;10.084;2022-12-13T10:25:47;4.70;;;3.42;;
21681;SDS011;11002;48.256;10.084;2022-12-13T10:28:23;4.53;;;3.47;;
21681;SDS011;11002;48.256;10.084;2022-12-13T10:30:54;5.15;;;3.33;;
21681;SDS011;11002;48.256;10.084;2022-12-13T10:33:24;3.55;;;3.22;;
21681;SDS011;11002;48.256;10.084;2022-12-13T10:36:03;4.18;;;2.85;;
21681;SDS011;11002;48.256;10.084;2022-12-13T10:38:39;3.20;;;2.90;;
21681;SDS011;11002;48.256;10.084;2022-12-13T10:41:30;3.80;;;2.97;;
21681;SDS011;11002;48.256;10.084;2022-12-13T10:44:06;3.08;;;2.78;;
21681;SDS011;11002;48.256;10.084;2022-12-13T10:46:38;6.15;;;3.22;;
21681;SDS011;11002;48.256;10.084;2022-12-13T10:49:12;3.70;;;3.00;;
21681;SDS011;11002;48.256;10.084;2022-12-13T10:51:44;3.60;;;3.20;;
21681;SDS011;11002;48.256;10.084;2022-12-13T10:54:13;3.00;;;2.70;;
21681;SDS011;11002;48.256;10.084;2022-12-13T10:56:53;3.25;;;2.92;;
21681;SDS011;11002;48.256;10.084;2022-12-13T10:59:33;3.22;;;2.53;;
21681;SDS011;11002;48.256;10.084;2022-12-13T11:02:21;3.17;;;2.88;;
21681;SDS011;11002;48.256;10.084;2022-12-13T11:04:59;3.97;;;2.95;;
21681;SDS011;11002;48.256;10.084;2022-12-13T11:07:50;3.15;;;2.65;;
21681;SDS011;11002;48.256;10.084;2022-12-13T11:10:22;3.55;;;2.85;;
21681;SDS011;11002;48.256;10.084;2022-12-13T11:12:52;2.92;;;2.63;;
21681;SDS011;11002;48.256;10.084;2022-12-13T11:15:25;5.07;;;3.03;;
21681;SDS011;11002;48.256;10.084;2022-12-13T11:17:55;4.45;;;2.50;;
21681;SDS011;11002;48.256;10.084;2022-12-13T11:20:25;2.90;;;2.50;;
21681;SDS011;11002;48.256;10.084;2022-12-13T11:23:01;3.20;;;2.72;;
21681;SDS011;11002;48.256;10.084;2022-12-13T11:25:33;2.95;;;2.60;;
21681;SDS011;11002;48.256;10.084;2022-12-13T11:31:08;6.40;;;2.97;;
21681;SDS011;11002;48.256;10.084;2022-12-13T11:33:43;4.15;;;2.60;;
21681;SDS011;11002;48.256;10.084;2022-12-13T11:36:20;3.30;;;2.70;;
21681;SDS011;11002;48.256;10.084;2022-12-13T11:39:02;3.03;;;2.53;;
21681;SDS011;11002;48.256;10.084;2022-12-13T11:41:41;4.90;;;2.63;;
21681;SDS011;11002;48.256;10.084;2022-12-13T11:44:15;5.03;;;2.50;;
21681;SDS011;11002;48.256;10.084;2022-12-13T11:46:51;5.82;;;2.65;;
21681;SDS011;11002;48.256;10.084;2022-12-13T11:49:25;3.03;;;2.65;;
21681;SDS011;11002;48.256;10.084;2022-12-13T11:52:01;4.13;;;3.03;;
21681;SDS011;11002;48.256;10.084;2022-12-13T11:54:39;7.20;;;2.50;;
21681;SDS011;11002;48.256;10.084;2022-12-13T11:57:14;5.75;;;2.63;;
21681;SDS011;11002;48.256;10.084;2022-12-13T11:59:53;2.67;;;2.42;;
21681;SDS011;11002;48.256;10.084;2022-12-13T12:02:26;3.30;;;2.58;;
21681;SDS011;11002;48.256;10.084;2022-12-13T12:04:57;3.40;;;2.55;;
21681;SDS011;11002;48.256;10.084;2022-12-13T12:07:32;4.25;;;2.53;;
21681;SDS011;11002;48.256;10.084;2022-12-13T12:10:14;3.15;;;2.25;;
21681;SDS011;11002;48.256;10.084;2022-12-13T12:12:54;3.55;;;2.47;;
21681;SDS011;11002;48.256;10.084;2022-12-13T12:15:29;2.45;;;2.22;;
21681;SDS011;11002;48.256;10.084;2022-12-13T12:18:00;3.38;;;2.80;;
21681;SDS011;11002;48.256;10.084;2022-12-13T12:20:35;2.65;;;2.30;;
21681;SDS011;11002;48.256;10.084;2022-12-13T12:23:13;3.47;;;2.35;;
21681;SDS011;11002;48.256;10.084;2022-12-13T12:25:50;4.38;;;3.10;;
21681;SDS011;11002;48.256;10.084;2022-12-13T12:28:24;2.50;;;2.28;;
21681;SDS011;11002;48.256;10.084;2022-12-13T12:31:00;3.63;;;2.38;;
21681;SDS011;11002;48.256;10.084;2022-12-13T12:33:35;2.92;;;2.17;;
21681;SDS011;11002;48.256;10.084;2022-12-13T12:36:12;2.58;;;2.22;;
21681;SDS011;11002;48.256;10.084;2022-12-13T12:38:57;4.10;;;2.50;;
21681;SDS011;11002;48.256;10.084;2022-12-13T12:42:02;2.80;;;2.20;;
21681;SDS011;11002;48.256;10.084;2022-12-13T12:44:53;2.58;;;2.38;;
21681;SDS011;11002;48.256;10.084;2022-12-13T12:47:32;2.40;;;2.20;;
21681;SDS011;11002;48.256;10.084;2022-12-13T12:50:15;3.00;;;2.33;;
21681;SDS011;11002;48.256;10.084;2022-12-13T12:53:01;2.97;;;2.30;;
21681;SDS011;11002;48.256;10.084;2022-12-13T12:55:43;2.42;;;2.22;;
21681;SDS011;11002;48.256;10.084;2022-12-13T12:58:21;2.70;;;2.50;;
21681;SDS011;11002;48.256;10.084;2022-12-13T13:00:57;2.42;;;2.22;;
21681;SDS011;11002;48.256;10.084;2022-12-13T13:03:37;3.13;;;2.17;;
21681;SDS011;11002;48.256;10.084;2022-12-13T13:06:08;2.25;;;2.05;;
21681;SDS011;11002;48.256;10.084;2022-12-13T13:08:41;2.83;;;2.05;;
21681;SDS011;11002;48.256;10.084;2022-12-13T13:11:12;2.30;;;2.10;;
21681;SDS011;11002;48.256;10.084;2022-12-13T13:13:45;3.28;;;2.17;;
21681;SDS011;11002;48.256;10.084;2022-12-13T13:16:28;3.35;;;2.10;;
21681;SDS011;11002;48.256;10.084;2022-12-13T13:18:58;3.35;;;2.40;;
21681;SDS011;11002;48.256;10.084;2022-12-13T13:24:14;4.70;;;2.17;;
21681;SDS011;11002;48.256;10.084;2022-12-13T13:26:52;4.57;;;2.47;;
21681;SDS011;11002;48.256;10.084;2022-12-13T13:29:28;2.78;;;1.92;;
21681;SDS011;11002;48.256;10.084;2022-12-13T13:31:59;2.50;;;2.30;;
21681;SDS011;11002;48.256;10.084;2022-12-13T13:34:32;2.03;;;1.83;;
21681;SDS011;11002;48.256;10.084;2022-12-13T13:37:01;2.45;;;2.03;;
21681;SDS011;11002;48.256;10.084;2022-12-13T13:39:37;2.65;;;2.30;;
21681;SDS011;11002;48.256;10.084;2022-12-13T13:42:21;2.75;;;2.13;;
21681;SDS011;11002;48.256;10.084;2022-12-13T13:45:01;3.25;;;2.22;;
21681;SDS011;11002;48.256;10.084;2022-12-13T13:47:51;2.47;;;2.22;;
21681;SDS011;11002;48.256;10.084;2022-12-13T13:50:42;3.55;;;2.15;;
21681;SDS011;11002;48.256;10.084;2022-12-13T13:56:34;2.53;;;2.10;;
21681;SDS011;11002;48.256;10.084;2022-12-13T13:59:22;3.20;;;2.30;;
21681;SDS011;11002;48.256;10.084;2022-12-13T14:05:33;3.80;;;2.25;;
21681;SDS011;11002;48.256;10.084;2022-12-13T14:08:31;2.58;;;2.10;;
21681;SDS011;11002;48.256;10.084;2022-12-13T14:11:12;2.72;;;2.05;;
21681;SDS011;11002;48.256;10.084;2022-12-13T14:13:58;2.30;;;2.10;;
21681;SDS011;11002;48.256;10.084;2022-12-13T14:23:15;2.22;;;1.95;;
21681;SDS011;11002;48.256;10.084;2022-12-13T14:25:57;2.15;;;1.95;;
21681;SDS011;11002;48.256;10.084;2022-12-13T14:28:39;3.17;;;2.08;;
21681;SDS011;11002;48.256;10.084;2022-12-13T14:31:13;2.50;;;2.00;;
21681;SDS011;11002;48.256;10.084;2022-12-13T14:33:43;2.47;;;2.20;;
21681;SDS011;11002;48.256;10.084;2022-12-13T14:36:15;2.38;;;2.10;;
21681;SDS011;11002;48.256;10.084;2022-12-13T14:38:44;2.40;;;2.20;;
21681;SDS011;11002;48.256;10.084;2022-12-13T14:41:15;2.40;;;1.83;;
21681;SDS011;11002;48.256;10.084;2022-12-13T14:43:44;2.70;;;2.30;;
21681;SDS011;11002;48.256;10.084;2022-12-13T14:46:12;2.75;;;2.45;;
21681;SDS011;11002;48.256;10.084;2022-12-13T14:48:43;1.83;;;1.73;;
21681;SDS011;11002;48.256;10.084;2022-12-13T14:51:26;2.47;;;2.20;;
21681;SDS011;11002;48.256;10.084;2022-12-13T14:53:58;2.67;;;1.92;;
21681;SDS011;11002;48.256;10.084;2022-12-13T14:56:27;2.53;;;2.28;;
21681;SDS011;11002;48.256;10.084;2022-12-13T14:58:55;2.55;;;1.88;;
21681;SDS011;11002;48.256;10.084;2022-12-13T15:01:24;2.63;;;1.70;;
21681;SDS011;11002;48.256;10.084;2022-12-13T15:03:54;2.75;;;1.90;;
21681;SDS011;11002;48.256;10.084;2022-12-13T15:06:43;2.22;;;2.03;;
21681;SDS011;11002;48.256;10.084;2022-12-13T15:09:13;2.10;;;1.90;;
21681;SDS011;11002;48.256;10.084;2022-12-13T15:11:42;1.80;;;1.70;;
21681;SDS011;11002;48.256;10.084;2022-12-13T15:14:12;2.53;;;1.90;;
21681;SDS011;11002;48.256;10.084;2022-12-13T15:16:45;1.73;;;1.63;;
21681;SDS011;11002;48.256;10.084;2022-12-13T15:19:15;1.88;;;1.73;;
21681;SDS011;11002;48.256;10.084;2022-12-13T15:21:53;2.03;;;1.83;;
21681;SDS011;11002;48.256;10.084;2022-12-13T15:24:27;2.03;;;1.80;;